Time;durP1;ratioP1;P1;durP2;ratioP2;P2;SDS_P1;SDS_P2;PMS_P1;PMS_P2;Temp;Humidity;BMP_temperature;BMP_pressure;BME280_temperature;BME280_humidity;BME280_pressure;Samples;Min_cycle;Max_cycle;Signal;HPM_P1;HPM_P2
2022/04/14 00:01:03;;;;;;;;;;;;;;;22.65;97.45;101876.53;5069815;28;19917;-51
2022/04/14 00:03:28;;;;;;;;;;;;;;;22.73;95.91;101878.81;5064478;28;19905;-52
2022/04/14 00:05:54;;;;;;;;;;;;;;;22.45;99.59;101872.41;5063227;28;19924;-57
2022/04/14 00:08:20;;;;;;;;;;;;;;;22.57;97.49;101874.22;5061657;28;19913;-53
2022/04/14 00:10:45;;;;;;;;;;;;;;;22.62;96.49;101874.31;5068356;28;19913;-54
2022/04/14 00:13:11;;;;;;;;;;;;;;;22.54;97.25;101875.56;5067990;28;20340;-55
2022/04/14 00:15:36;;;;;;;;;;;;;;;22.56;96.98;101872.56;5062262;28;19905;-57
2022/04/14 00:18:01;;;;;;;;;;;;;;;22.26;100.00;101871.88;5063917;28;19980;-53
2022/04/14 00:20:27;;;;;;;;;;;;;;;22.26;100.00;101874.59;5067427;28;19938;-53
2022/04/14 00:22:52;;;;;;;;;;;;;;;21.80;100.00;101869.22;5054210;28;19917;-53
2022/04/14 00:25:18;;;;;;;;;;;;;;;20.76;100.00;101864.50;5067035;28;19976;-53
2022/04/14 00:27:43;;;;;;;;;;;;;;;20.81;100.00;101873.84;5060907;28;19913;-51
2022/04/14 00:30:10;;;;;;;;;;;;;;;21.02;100.00;101861.50;5066706;28;19976;-54
2022/04/14 00:32:36;;;;;;;;;;;;;;;21.12;100.00;101860.88;5061128;28;19913;-52
2022/04/14 00:35:01;;;;;;;;;;;;;;;20.95;100.00;101871.69;5067439;28;19955;-57
2022/04/14 00:37:27;;;;;;;;;;;;;;;21.45;100.00;101864.75;5068459;28;19928;-55
2022/04/14 00:39:52;;;;;;;;;;;;;;;21.50;100.00;101862.13;5057334;28;19917;-53
2022/04/14 00:42:18;;;;;;;;;;;;;;;21.91;100.00;101852.00;5060136;28;19959;-54
2022/04/14 00:44:43;;;;;;;;;;;;;;;21.51;100.00;101854.78;5062746;28;19940;-53
2022/04/14 00:47:10;;;;;;;;;;;;;;;21.39;100.00;101854.84;5059166;28;19979;-53
2022/04/14 00:49:35;;;;;;;;;;;;;;;21.65;100.00;101852.59;5063148;28;19905;-55
2022/04/14 00:52:01;;;;;;;;;;;;;;;21.47;100.00;101851.75;5067198;28;19913;-56
2022/04/14 00:54:28;;;;;;;;;;;;;;;21.30;100.00;101841.66;5064100;28;19923;-56
2022/04/14 00:56:55;;;;;;;;;;;;;;;21.50;100.00;101834.94;5073158;28;19943;-52
2022/04/14 00:59:20;;;;;;;;;;;;;;;21.45;100.00;101843.81;5069119;28;19917;-51
2022/04/14 01:01:45;;;;;;;;;;;;;;;21.43;100.00;101850.56;5077688;28;19944;-55
2022/04/14 01:04:12;;;;;;;;;;;;;;;21.81;100.00;101851.81;5070959;28;19912;-55
2022/04/14 01:06:38;;;;;;;;;;;;;;;21.70;100.00;101850.00;5048002;28;19913;-51
2022/04/14 01:09:19;;;;;;;;;;;;;;;21.97;100.00;101843.91;5067989;28;19980;-54
2022/04/14 01:11:54;;;;;;;;;;;;;;;21.98;100.00;101840.09;5064364;28;19936;-55
2022/04/14 01:14:27;;;;;;;;;;;;;;;21.80;100.00;101849.31;5070230;28;19913;-50
2022/04/14 01:16:54;;;;;;;;;;;;;;;21.95;100.00;101837.88;5065853;28;19912;-52
2022/04/14 01:19:19;;;;;;;;;;;;;;;21.65;100.00;101836.28;5069306;28;19924;-52
2022/04/14 01:21:49;;;;;;;;;;;;;;;21.53;100.00;101834.44;5070405;28;19913;-53
2022/04/14 01:24:15;;;;;;;;;;;;;;;21.25;100.00;101832.56;5077346;28;19972;-55
2022/04/14 01:26:41;;;;;;;;;;;;;;;21.42;100.00;101833.44;5070379;28;19913;-57
2022/04/14 01:29:18;;;;;;;;;;;;;;;21.30;100.00;101835.38;5065341;28;19924;-52
2022/04/14 01:31:43;;;;;;;;;;;;;;;21.28;100.00;101834.78;5071173;28;19937;-52
2022/04/14 01:34:09;;;;;;;;;;;;;;;21.12;100.00;101833.69;5063280;28;19992;-57
2022/04/14 01:36:34;;;;;;;;;;;;;;;21.13;100.00;101832.59;5070121;28;19919;-53
2022/04/14 01:39:00;;;;;;;;;;;;;;;20.89;100.00;101836.25;5059199;28;19924;-51
2022/04/14 01:41:25;;;;;;;;;;;;;;;21.06;100.00;101841.75;5077008;28;19928;-53
2022/04/14 01:43:50;;;;;;;;;;;;;;;21.58;100.00;101842.69;5063177;28;19956;-55
2022/04/14 01:46:16;;;;;;;;;;;;;;;21.73;100.00;101844.88;5070822;28;19913;-52
2022/04/14 01:48:41;;;;;;;;;;;;;;;21.97;100.00;101843.91;5064341;28;19928;-53
2022/04/14 01:51:07;;;;;;;;;;;;;;;22.07;100.00;101846.78;5073509;28;19917;-54
2022/04/14 01:53:32;;;;;;;;;;;;;;;21.64;100.00;101840.88;5065814;28;19942;-55
2022/04/14 01:55:58;;;;;;;;;;;;;;;21.75;100.00;101844.63;5066554;28;19952;-56
2022/04/14 01:58:23;;;;;;;;;;;;;;;21.59;100.00;101838.06;5063598;28;19917;-53
2022/04/14 02:00:48;;;;;;;;;;;;;;;21.56;100.00;101844.81;5063808;28;19919;-56
2022/04/14 02:03:14;;;;;;;;;;;;;;;21.31;100.00;101856.91;5068068;28;19912;-54
2022/04/14 02:05:40;;;;;;;;;;;;;;;21.55;100.00;101855.94;5061472;28;19927;-56
2022/04/14 02:08:05;;;;;;;;;;;;;;;21.65;100.00;101858.06;5068660;28;19912;-55
2022/04/14 02:10:31;;;;;;;;;;;;;;;21.06;100.00;101865.38;5069383;28;19912;-54
2022/04/14 02:12:58;;;;;;;;;;;;;;;21.39;100.00;101861.13;5066784;28;19955;-51
2022/04/14 02:15:23;;;;;;;;;;;;;;;21.34;100.00;101861.84;5069165;28;19912;-52
2022/04/14 02:17:49;;;;;;;;;;;;;;;21.34;100.00;101867.28;5063126;28;19992;-53
2022/04/14 02:20:14;;;;;;;;;;;;;;;21.13;100.00;101865.25;5057749;28;19921;-52
2022/04/14 02:22:40;;;;;;;;;;;;;;;20.94;100.00;101865.41;5058328;28;19913;-55
2022/04/14 02:25:06;;;;;;;;;;;;;;;20.84;100.00;101874.19;5060463;28;19920;-55
2022/04/14 02:27:31;;;;;;;;;;;;;;;20.71;100.00;101871.72;5068392;28;19980;-52
2022/04/14 02:29:57;;;;;;;;;;;;;;;20.99;100.00;101875.56;5070634;28;19913;-58
2022/04/14 02:32:22;;;;;;;;;;;;;;;20.98;100.00;101877.44;5069423;28;19916;-56
2022/04/14 02:34:48;;;;;;;;;;;;;;;21.14;100.00;101873.16;5063085;28;19923;-57
2022/04/14 02:37:13;;;;;;;;;;;;;;;21.30;100.00;101876.16;5057433;28;19917;-55
2022/04/14 02:39:39;;;;;;;;;;;;;;;21.26;100.00;101875.84;5056194;28;19927;-54
2022/04/14 02:42:05;;;;;;;;;;;;;;;21.40;100.00;101870.09;5060154;28;19919;-52
2022/04/14 02:44:30;;;;;;;;;;;;;;;21.18;100.00;101878.94;5064960;28;19921;-54
2022/04/14 02:46:55;;;;;;;;;;;;;;;21.37;100.00;101873.31;5061910;28;19913;-55
2022/04/14 02:49:22;;;;;;;;;;;;;;;21.50;100.00;101873.03;5062993;28;20007;-56
2022/04/14 02:51:48;;;;;;;;;;;;;;;21.55;100.00;101869.56;5065192;28;19973;-51
2022/04/14 02:54:13;;;;;;;;;;;;;;;21.66;100.00;101865.16;5062049;28;19920;-56
2022/04/14 02:56:38;;;;;;;;;;;;;;;21.58;100.00;101869.91;5066560;28;20012;-51
2022/04/14 02:59:04;;;;;;;;;;;;;;;21.82;98.43;101869.78;5056274;28;19924;-51
2022/04/14 03:01:30;;;;;;;;;;;;;;;21.72;99.17;101870.44;5063519;28;19923;-52
2022/04/14 03:03:55;;;;;;;;;;;;;;;21.79;97.80;101873.00;5068281;28;19924;-53
2022/04/14 03:06:21;;;;;;;;;;;;;;;21.68;98.18;101873.88;5058409;28;19976;-52
2022/04/14 03:08:47;;;;;;;;;;;;;;;21.69;97.33;101881.00;5060336;28;19940;-57
2022/04/14 03:11:12;;;;;;;;;;;;;;;21.80;94.51;101876.53;5061433;28;19913;-53
2022/04/14 03:13:39;;;;;;;;;;;;;;;21.67;96.92;101886.69;5068611;28;19924;-52
2022/04/14 03:16:04;;;;;;;;;;;;;;;21.72;93.43;101881.31;5065352;28;19917;-53
2022/04/14 03:18:29;;;;;;;;;;;;;;;21.79;91.98;101881.19;5074727;28;19967;-54
2022/04/14 03:20:55;;;;;;;;;;;;;;;21.55;95.46;101880.44;5065658;28;19913;-55
2022/04/14 03:23:21;;;;;;;;;;;;;;;21.55;94.20;101884.00;5068394;28;19917;-51
2022/04/14 03:25:46;;;;;;;;;;;;;;;21.46;93.07;101880.84;5056272;28;20039;-54
2022/04/14 03:28:11;;;;;;;;;;;;;;;20.88;100.00;101877.25;5055854;28;19982;-54
2022/04/14 03:30:37;;;;;;;;;;;;;;;20.57;100.00;101876.56;5061657;28;19967;-50
2022/04/14 03:33:03;;;;;;;;;;;;;;;20.67;100.00;101871.34;5057845;28;19919;-53
2022/04/14 03:35:28;;;;;;;;;;;;;;;20.71;100.00;101875.22;5065295;28;19968;-55
2022/04/14 03:37:53;;;;;;;;;;;;;;;20.53;100.00;101875.38;5063808;28;19913;-55
2022/04/14 03:40:19;;;;;;;;;;;;;;;20.32;100.00;101877.63;5054436;28;20039;-54
2022/04/14 03:42:44;;;;;;;;;;;;;;;20.17;100.00;101870.78;5071107;28;19949;-51
2022/04/14 03:45:10;;;;;;;;;;;;;;;20.06;100.00;101864.28;5064475;28;19931;-54
2022/04/14 03:47:35;;;;;;;;;;;;;;;20.28;100.00;101862.84;5063883;28;19938;-54
2022/04/14 03:50:01;;;;;;;;;;;;;;;20.48;100.00;101868.75;5058444;28;19913;-55
2022/04/14 03:52:27;;;;;;;;;;;;;;;20.59;100.00;101869.00;5064939;28;19920;-50
2022/04/14 03:54:52;;;;;;;;;;;;;;;20.60;100.00;101868.75;5054200;28;19913;-53
2022/04/14 03:57:17;;;;;;;;;;;;;;;20.54;100.00;101872.44;5053893;28;19924;-51
2022/04/14 03:59:43;;;;;;;;;;;;;;;20.65;99.15;101867.22;5061830;28;20365;-54
2022/04/14 04:02:09;;;;;;;;;;;;;;;20.55;100.00;101881.41;5071089;28;19912;-51
2022/04/14 04:04:34;;;;;;;;;;;;;;;20.49;100.00;101870.41;5060777;28;19913;-55
2022/04/14 04:07:00;;;;;;;;;;;;;;;20.58;100.00;101868.16;5071029;28;19955;-54
2022/04/14 04:09:26;;;;;;;;;;;;;;;20.57;100.00;101876.56;5071882;28;19923;-55
2022/04/14 04:11:53;;;;;;;;;;;;;;;20.47;100.00;101872.53;5067571;28;19917;-58
2022/04/14 04:14:18;;;;;;;;;;;;;;;20.44;100.00;101881.16;5060292;28;19939;-55
2022/04/14 04:16:45;;;;;;;;;;;;;;;20.41;100.00;101878.94;5068321;28;19917;-52
2022/04/14 04:19:11;;;;;;;;;;;;;;;20.32;100.00;101874.94;5065965;28;19963;-53
2022/04/14 04:21:36;;;;;;;;;;;;;;;20.14;100.00;101875.84;5062270;28;19913;-54
2022/04/14 04:24:02;;;;;;;;;;;;;;;20.05;100.00;101880.78;5065764;28;19924;-52
2022/04/14 04:26:27;;;;;;;;;;;;;;;20.10;100.00;101878.22;5066985;28;19916;-54
2022/04/14 04:28:53;;;;;;;;;;;;;;;19.85;100.00;101873.78;5038553;28;19972;-51
2022/04/14 04:31:18;;;;;;;;;;;;;;;20.00;100.00;101881.50;5063893;28;19980;-53
2022/04/14 04:33:43;;;;;;;;;;;;;;;20.01;100.00;101885.88;5063785;28;19913;-54
2022/04/14 04:36:11;;;;;;;;;;;;;;;19.78;100.00;101889.31;5067069;28;19924;-54
2022/04/14 04:38:36;;;;;;;;;;;;;;;19.91;100.00;101891.03;5067598;28;19976;-51
2022/04/14 04:41:01;;;;;;;;;;;;;;;20.14;100.00;101901.13;5053690;28;19917;-52
2022/04/14 04:43:27;;;;;;;;;;;;;;;20.12;100.00;101891.53;5059582;28;19924;-54
2022/04/14 04:45:52;;;;;;;;;;;;;;;20.16;100.00;101893.56;5061868;28;19917;-51
2022/04/14 04:48:17;;;;;;;;;;;;;;;20.18;100.00;101896.88;5060439;28;19955;-54
2022/04/14 04:50:43;;;;;;;;;;;;;;;20.19;100.00;101903.94;5062156;28;19913;-55
2022/04/14 04:53:09;;;;;;;;;;;;;;;20.00;100.00;101902.38;5066888;28;19913;-53
2022/04/14 04:55:34;;;;;;;;;;;;;;;19.95;100.00;101902.25;5066173;28;19912;-53
2022/04/14 04:58:00;;;;;;;;;;;;;;;20.03;100.00;101907.34;5061375;28;19943;-52
2022/04/14 05:00:25;;;;;;;;;;;;;;;20.16;100.00;101904.44;5066861;28;19917;-56
2022/04/14 05:02:50;;;;;;;;;;;;;;;20.05;100.00;101910.66;5069188;28;19935;-55
2022/04/14 05:05:17;;;;;;;;;;;;;;;19.88;100.00;101910.47;5060782;28;19913;-55
2022/04/14 05:07:43;;;;;;;;;;;;;;;20.03;100.00;101916.31;5073558;28;19923;-56
2022/04/14 05:10:09;;;;;;;;;;;;;;;20.05;100.00;101913.38;5063678;28;19912;-56
2022/04/14 05:12:34;;;;;;;;;;;;;;;20.06;100.00;101915.84;5060529;28;19916;-54
2022/04/14 05:15:00;;;;;;;;;;;;;;;20.03;100.00;101913.63;5061378;28;19909;-52
2022/04/14 05:17:25;;;;;;;;;;;;;;;19.96;100.00;101912.06;5062108;28;19920;-57
2022/04/14 05:19:50;;;;;;;;;;;;;;;19.95;100.00;101919.34;5060457;28;19917;-54
2022/04/14 05:22:16;;;;;;;;;;;;;;;20.02;100.00;101921.97;5066665;28;19913;-56
2022/04/14 05:24:42;;;;;;;;;;;;;;;20.04;99.22;101917.13;5063825;28;19917;-54
2022/04/14 05:27:08;;;;;;;;;;;;;;;19.95;100.00;101913.13;5059486;28;19913;-52
2022/04/14 05:29:36;;;;;;;;;;;;;;;20.14;100.00;101917.41;5061212;28;19901;-52
2022/04/14 05:32:01;;;;;;;;;;;;;;;19.97;100.00;101916.44;5053589;28;19913;-55
2022/04/14 05:34:26;;;;;;;;;;;;;;;19.47;100.00;101924.59;5053331;28;19913;-53
2022/04/14 05:36:52;;;;;;;;;;;;;;;19.59;100.00;101926.53;5060393;28;19920;-51
2022/04/14 05:39:18;;;;;;;;;;;;;;;20.15;100.00;101939.94;5056329;28;19917;-53
2022/04/14 05:41:44;;;;;;;;;;;;;;;20.16;98.94;101941.59;5061036;28;19951;-54
2022/04/14 05:44:10;;;;;;;;;;;;;;;20.09;100.00;101940.88;5062598;28;19917;-57
2022/04/14 05:46:35;;;;;;;;;;;;;;;20.31;98.00;101938.47;5064121;28;19920;-50
2022/04/14 05:49:00;;;;;;;;;;;;;;;20.41;98.18;101946.00;5057505;28;19924;-54
2022/04/14 05:51:26;;;;;;;;;;;;;;;21.01;89.15;101947.69;5066983;28;19936;-50
2022/04/14 05:53:53;;;;;;;;;;;;;;;21.03;89.44;101948.28;5070788;28;19905;-53
2022/04/14 05:56:18;;;;;;;;;;;;;;;20.69;92.53;101950.75;5062198;28;19913;-51
2022/04/14 05:58:44;;;;;;;;;;;;;;;20.53;95.11;101948.72;5057462;28;19917;-52
2022/04/14 06:01:09;;;;;;;;;;;;;;;20.25;100.00;101947.53;5058183;28;19912;-56
2022/04/14 06:03:35;;;;;;;;;;;;;;;19.77;100.00;101950.09;5056445;28;19920;-54
2022/04/14 06:06:00;;;;;;;;;;;;;;;19.88;100.00;101953.91;5056953;28;19913;-52
2022/04/14 06:08:26;;;;;;;;;;;;;;;20.42;100.00;101953.94;5056972;28;19913;-53
2022/04/14 06:10:51;;;;;;;;;;;;;;;19.74;100.00;101953.25;5068192;28;19917;-51
2022/04/14 06:13:17;;;;;;;;;;;;;;;19.63;100.00;101952.16;5056673;28;19913;-51
2022/04/14 06:15:42;;;;;;;;;;;;;;;19.78;100.00;101957.16;5054460;28;19924;-55
2022/04/14 06:18:08;;;;;;;;;;;;;;;19.89;100.00;101952.84;5059755;28;20456;-53
2022/04/14 06:20:33;;;;;;;;;;;;;;;20.12;100.00;101960.25;5056973;28;19913;-54
2022/04/14 06:22:58;;;;;;;;;;;;;;;20.28;100.00;101955.19;5055757;28;19972;-50
2022/04/14 06:25:24;;;;;;;;;;;;;;;20.12;100.00;101956.72;5058166;28;19988;-51
2022/04/14 06:27:50;;;;;;;;;;;;;;;20.57;100.00;101960.81;5058080;28;19912;-54
2022/04/14 06:30:17;;;;;;;;;;;;;;;20.14;100.00;101954.59;5056196;28;19937;-51
2022/04/14 06:32:54;;;;;;;;;;;;;;;20.16;100.00;101958.75;5055146;28;19927;-55
2022/04/14 06:35:19;;;;;;;;;;;;;;;20.52;98.47;101961.50;5055324;28;20007;-52
2022/04/14 06:37:44;;;;;;;;;;;;;;;20.40;100.00;101961.50;5057577;28;19944;-54
2022/04/14 06:40:10;;;;;;;;;;;;;;;20.73;96.17;101965.50;5060655;28;19917;-57
2022/04/14 06:42:35;;;;;;;;;;;;;;;20.58;98.92;101971.41;5058756;28;20311;-54
2022/04/14 06:45:00;;;;;;;;;;;;;;;20.87;96.52;101968.84;5044689;28;19927;-55
2022/04/14 06:47:26;;;;;;;;;;;;;;;20.99;93.59;101971.59;5037155;28;19917;-51
2022/04/14 06:49:52;;;;;;;;;;;;;;;20.88;92.17;101961.53;5038044;28;19917;-56
2022/04/14 06:52:17;;;;;;;;;;;;;;;21.32;90.04;101969.25;5039032;28;19920;-51
2022/04/14 06:54:43;;;;;;;;;;;;;;;21.20;89.39;101966.56;5037678;28;19980;-51
2022/04/14 06:57:09;;;;;;;;;;;;;;;21.33;88.97;101968.19;5037355;28;19913;-51
2022/04/14 06:59:34;;;;;;;;;;;;;;;20.61;94.97;101976.38;5037285;28;19917;-53
2022/04/14 07:01:59;;;;;;;;;;;;;;;20.80;93.67;101975.50;5037954;28;20005;-53
2022/04/14 07:04:25;;;;;;;;;;;;;;;21.03;91.57;101978.19;5038525;28;19921;-56
2022/04/14 07:06:50;;;;;;;;;;;;;;;21.45;87.62;101976.31;5037578;28;19914;-56
2022/04/14 07:09:15;;;;;;;;;;;;;;;21.18;91.14;101974.97;5038449;28;20353;-56
2022/04/14 07:11:41;;;;;;;;;;;;;;;21.01;92.26;101979.47;5037047;28;19921;-55
2022/04/14 07:14:06;;;;;;;;;;;;;;;21.22;91.50;101979.94;5044063;28;19923;-55
2022/04/14 07:16:32;;;;;;;;;;;;;;;20.65;95.93;101984.91;5034278;28;19918;-57
2022/04/14 07:18:57;;;;;;;;;;;;;;;21.34;91.16;101986.19;5038273;28;19928;-54
2022/04/14 07:21:23;;;;;;;;;;;;;;;21.70;86.23;101977.94;5036081;28;19944;-56
2022/04/14 07:23:48;;;;;;;;;;;;;;;21.69;88.03;101981.72;5034905;28;19914;-54
2022/04/14 07:26:13;;;;;;;;;;;;;;;21.86;83.88;101992.66;5021710;28;19939;-54
2022/04/14 07:28:39;;;;;;;;;;;;;;;21.76;82.74;101990.56;5037979;28;19913;-51
2022/04/14 07:31:05;;;;;;;;;;;;;;;22.16;79.89;101988.81;5044309;28;19913;-53
2022/04/14 07:33:30;;;;;;;;;;;;;;;22.30;78.39;101992.06;5043168;28;20423;-55
2022/04/14 07:35:56;;;;;;;;;;;;;;;22.51;76.77;101989.69;5037467;28;19916;-53
2022/04/14 07:38:21;;;;;;;;;;;;;;;22.76;75.45;101998.25;5036200;28;19917;-55
2022/04/14 07:40:47;;;;;;;;;;;;;;;22.33;75.70;101997.84;5043065;28;19952;-51
2022/04/14 07:43:12;;;;;;;;;;;;;;;22.39;74.91;101989.75;5036297;28;19920;-57
2022/04/14 07:45:38;;;;;;;;;;;;;;;22.68;72.54;102001.44;5057023;28;20008;-53
2022/04/14 07:48:04;;;;;;;;;;;;;;;22.61;74.06;101996.13;5058824;28;19913;-56
2022/04/14 07:50:30;;;;;;;;;;;;;;;22.72;72.62;102009.91;5057863;28;19913;-54
2022/04/14 07:52:56;;;;;;;;;;;;;;;22.49;73.00;101998.13;5055938;28;19913;-54
2022/04/14 07:55:23;;;;;;;;;;;;;;;22.84;71.65;102005.19;5059696;28;19913;-56
2022/04/14 07:57:52;;;;;;;;;;;;;;;23.03;70.77;102003.00;5073066;28;19951;-55
2022/04/14 08:00:18;;;;;;;;;;;;;;;23.12;69.87;102003.41;5055494;28;19992;-54
2022/04/14 08:02:53;;;;;;;;;;;;;;;22.77;71.33;102010.81;5054915;28;20009;-55
2022/04/14 08:05:19;;;;;;;;;;;;;;;23.65;65.97;102008.47;5059372;28;19984;-56
2022/04/14 08:07:46;;;;;;;;;;;;;;;23.94;63.94;102010.94;5062255;28;19920;-56
2022/04/14 08:10:11;;;;;;;;;;;;;;;23.74;64.83;102009.66;5062321;28;19912;-52
2022/04/14 08:12:36;;;;;;;;;;;;;;;24.59;63.14;102008.28;5064284;28;19912;-55
2022/04/14 08:15:02;;;;;;;;;;;;;;;24.88;60.01;102009.84;5062672;28;19948;-58
2022/04/14 08:17:27;;;;;;;;;;;;;;;24.96;58.72;102012.09;5073308;28;19913;-56
2022/04/14 08:19:52;;;;;;;;;;;;;;;25.29;57.30;102012.78;5067272;28;19939;-51
2022/04/14 08:22:17;;;;;;;;;;;;;;;24.99;58.14;102013.44;5067125;28;19912;-56
2022/04/14 08:24:47;;;;;;;;;;;;;;;24.61;57.53;102013.47;5042570;28;19908;-56
2022/04/14 08:27:13;;;;;;;;;;;;;;;24.78;58.00;102007.84;5063047;28;19913;-55
2022/04/14 08:29:39;;;;;;;;;;;;;;;24.97;57.04;102007.44;5065734;28;19940;-55
2022/04/14 08:32:07;;;;;;;;;;;;;;;25.23;56.36;102013.03;5067382;28;19913;-57
2022/04/14 08:34:32;;;;;;;;;;;;;;;24.80;57.31;102004.88;5053596;28;19939;-54
2022/04/14 08:36:58;;;;;;;;;;;;;;;25.65;55.61;102014.06;5056127;28;19940;-53
2022/04/14 08:39:23;;;;;;;;;;;;;;;25.16;55.50;102007.81;5069851;28;19916;-56
2022/04/14 08:41:52;;;;;;;;;;;;;;;25.13;56.38;102013.78;5064841;28;19912;-53
2022/04/14 08:44:21;;;;;;;;;;;;;;;25.47;56.33;102016.19;5066998;28;19939;-52
2022/04/14 08:46:47;;;;;;;;;;;;;;;25.02;56.45;102015.66;5057082;28;19948;-53
2022/04/14 08:49:14;;;;;;;;;;;;;;;24.68;58.36;102011.34;5053006;28;19923;-55
2022/04/14 08:51:40;;;;;;;;;;;;;;;25.71;54.94;102018.44;5052304;28;19913;-52
2022/04/14 08:54:07;;;;;;;;;;;;;;;26.37;53.37;102025.16;5056025;28;19912;-58
2022/04/14 08:56:34;;;;;;;;;;;;;;;26.24;53.00;102025.69;5057778;28;19944;-56
2022/04/14 08:59:00;;;;;;;;;;;;;;;26.96;51.70;102022.88;5051392;28;19928;-55
2022/04/14 09:01:26;;;;;;;;;;;;;;;26.84;51.28;102016.88;5055561;28;19936;-52
2022/04/14 09:03:53;;;;;;;;;;;;;;;26.96;50.96;102020.13;5056915;28;19912;-55
2022/04/14 09:06:19;;;;;;;;;;;;;;;26.68;50.63;102019.63;5053831;28;19940;-54
2022/04/14 09:08:46;;;;;;;;;;;;;;;26.67;50.84;102012.50;5059893;28;19931;-58
2022/04/14 09:11:12;;;;;;;;;;;;;;;27.12;49.77;102014.63;5062841;28;19921;-52
2022/04/14 09:13:38;;;;;;;;;;;;;;;27.60;48.79;102012.22;5070558;28;19913;-55
2022/04/14 09:16:04;;;;;;;;;;;;;;;27.56;47.94;102013.91;5062904;28;19920;-55
2022/04/14 09:18:30;;;;;;;;;;;;;;;28.39;47.14;102020.78;5059817;28;19921;-55
2022/04/14 09:21:02;;;;;;;;;;;;;;;27.29;48.37;102012.34;5057492;28;19937;-54
2022/04/14 09:23:28;;;;;;;;;;;;;;;28.33;46.65;102015.34;5060156;28;19913;-56
2022/04/14 09:26:02;;;;;;;;;;;;;;;29.39;44.16;102003.72;5062709;28;19909;-56
2022/04/14 09:28:28;;;;;;;;;;;;;;;30.03;42.31;102000.66;5056664;28;19928;-54
2022/04/14 09:31:07;;;;;;;;;;;;;;;30.31;41.64;102005.44;5052417;28;19916;-57
2022/04/14 09:33:34;;;;;;;;;;;;;;;29.99;41.32;102001.53;5057339;28;19944;-56
2022/04/14 09:36:10;;;;;;;;;;;;;;;29.93;41.07;102008.25;5069884;28;19909;-55
2022/04/14 09:38:49;;;;;;;;;;;;;;;31.17;38.75;102006.06;5063570;28;19917;-54
2022/04/14 09:41:31;;;;;;;;;;;;;;;31.81;37.66;102008.00;5071417;28;19919;-55
2022/04/14 09:43:57;;;;;;;;;;;;;;;32.18;36.63;102003.22;5053400;28;19917;-55
2022/04/14 09:46:22;;;;;;;;;;;;;;;32.67;35.67;102013.59;5060064;28;19988;-54
2022/04/14 09:49:03;;;;;;;;;;;;;;;32.45;35.44;102011.72;5069194;28;19916;-54
2022/04/14 09:51:29;;;;;;;;;;;;;;;32.13;35.10;101999.75;5068941;28;19917;-55
2022/04/14 09:54:15;;;;;;;;;;;;;;;33.43;33.56;102005.38;5059042;28;19916;-52
2022/04/14 09:56:45;;;;;;;;;;;;;;;33.93;32.33;102014.34;5065061;28;19913;-52
2022/04/14 09:59:12;;;;;;;;;;;;;;;34.01;33.10;102027.44;5064557;28;19917;-56
2022/04/14 10:01:38;;;;;;;;;;;;;;;34.51;32.30;102025.22;5067886;28;19913;-55
2022/04/14 10:04:04;;;;;;;;;;;;;;;33.87;32.02;102027.56;5071469;28;19919;-56
2022/04/14 10:06:30;;;;;;;;;;;;;;;33.73;32.34;102038.84;5064102;28;19917;-57
2022/04/14 10:08:56;;;;;;;;;;;;;;;35.23;30.97;102039.25;5060066;28;19920;-55
2022/04/14 10:11:25;;;;;;;;;;;;;;;34.42;31.83;102039.91;5060639;28;19916;-58
2022/04/14 10:13:51;;;;;;;;;;;;;;;35.48;30.90;102042.19;5063623;28;19924;-59
2022/04/14 10:16:20;;;;;;;;;;;;;;;35.45;30.18;102040.09;5069230;28;19913;-55
2022/04/14 10:18:46;;;;;;;;;;;;;;;36.57;28.99;102055.34;5058144;28;19940;-59
2022/04/14 10:21:12;;;;;;;;;;;;;;;35.51;28.95;102049.91;5069670;28;19913;-57
2022/04/14 10:23:38;;;;;;;;;;;;;;;34.88;29.97;102053.34;5075941;28;19912;-59
2022/04/14 10:26:03;;;;;;;;;;;;;;;35.48;29.44;102060.88;5068310;28;20024;-58
2022/04/14 10:28:29;;;;;;;;;;;;;;;35.99;29.09;102050.47;5063315;28;19943;-56
2022/04/14 10:30:57;;;;;;;;;;;;;;;37.43;27.23;102059.25;5056413;28;19984;-55
2022/04/14 10:33:23;;;;;;;;;;;;;;;36.97;28.67;102048.28;5054863;28;19913;-56
2022/04/14 10:35:52;;;;;;;;;;;;;;;36.66;28.20;102046.84;5071252;28;19912;-56
2022/04/14 10:38:24;;;;;;;;;;;;;;;37.23;27.43;102049.06;5065754;28;19913;-57
2022/04/14 10:41:00;;;;;;;;;;;;;;;37.83;27.26;102043.72;5062907;28;19912;-57
2022/04/14 10:43:27;;;;;;;;;;;;;;;37.56;27.28;102048.91;5067203;28;19913;-57
2022/04/14 10:45:54;;;;;;;;;;;;;;;37.77;26.50;102042.31;5063050;28;19948;-59
2022/04/14 10:48:27;;;;;;;;;;;;;;;38.13;25.91;102048.94;5058229;28;19912;-59
2022/04/14 10:51:12;;;;;;;;;;;;;;;38.81;25.45;102051.06;5047410;28;19961;-58
2022/04/14 10:53:55;;;;;;;;;;;;;;;36.34;27.49;102054.13;5053023;28;19956;-60
2022/04/14 10:56:44;;;;;;;;;;;;;;;38.39;26.16;102052.38;5065726;28;19920;-58
2022/04/14 10:59:14;;;;;;;;;;;;;;;39.30;25.12;102047.00;5058421;28;19917;-59
2022/04/14 11:01:45;;;;;;;;;;;;;;;38.54;24.80;102039.63;5058277;28;19923;-58
2022/04/14 11:04:29;;;;;;;;;;;;;;;37.69;25.31;102051.66;5056933;28;19920;-58
2022/04/14 11:06:54;;;;;;;;;;;;;;;37.22;25.48;102051.06;5054392;28;19913;-58
2022/04/14 11:09:38;;;;;;;;;;;;;;;37.42;25.51;102052.06;5059565;28;19913;-60
2022/04/14 11:12:05;;;;;;;;;;;;;;;37.69;25.65;102046.09;5056601;28;19909;-58
2022/04/14 11:14:37;;;;;;;;;;;;;;;38.70;25.68;102042.44;5060956;28;19917;-58
2022/04/14 11:17:03;;;;;;;;;;;;;;;40.10;25.30;102043.84;5055954;28;19917;-58
2022/04/14 11:19:29;;;;;;;;;;;;;;;39.33;23.35;102037.91;5057740;28;19921;-56
2022/04/14 11:21:58;;;;;;;;;;;;;;;38.35;26.59;102032.75;5058712;28;19913;-59
2022/04/14 11:24:36;;;;;;;;;;;;;;;39.15;23.31;102034.69;5056294;28;19913;-58
2022/04/14 11:27:29;;;;;;;;;;;;;;;40.01;22.55;102046.09;5059884;28;19952;-59
2022/04/14 11:30:03;;;;;;;;;;;;;;;39.34;22.71;102042.31;5054253;28;19948;-59
2022/04/14 11:32:41;;;;;;;;;;;;;;;39.28;22.57;102044.59;5059039;28;19964;-58
2022/04/14 11:35:08;;;;;;;;;;;;;;;40.25;22.05;102050.50;5058810;28;19913;-58
2022/04/14 11:37:37;;;;;;;;;;;;;;;40.79;22.35;102044.25;5058947;28;19946;-56
2022/04/14 11:40:10;;;;;;;;;;;;;;;40.72;21.75;102039.38;5057049;28;19956;-57
2022/04/14 11:42:35;;;;;;;;;;;;;;;42.59;20.92;102038.38;5055119;28;19912;-58
2022/04/14 11:45:01;;;;;;;;;;;;;;;42.07;20.77;102047.53;5055250;28;19984;-58
2022/04/14 11:47:26;;;;;;;;;;;;;;;42.34;22.68;102045.38;5057584;28;19913;-60
2022/04/14 11:49:52;;;;;;;;;;;;;;;43.32;19.70;102050.91;5056474;28;19952;-58
2022/04/14 11:52:20;;;;;;;;;;;;;;;42.79;19.34;102047.34;5051088;28;19913;-58
2022/04/14 11:54:46;;;;;;;;;;;;;;;42.64;21.32;102040.81;5057153;28;19917;-59
2022/04/14 11:57:17;;;;;;;;;;;;;;;41.52;23.38;102046.06;5058099;28;19988;-57
2022/04/14 11:59:44;;;;;;;;;;;;;;;40.92;20.53;102037.25;5055958;28;19929;-57
2022/04/14 12:02:16;;;;;;;;;;;;;;;40.79;21.55;102038.63;5057450;28;19913;-58
2022/04/14 12:04:51;;;;;;;;;;;;;;;38.75;23.11;102032.94;5055809;28;19948;-60
2022/04/14 12:07:17;;;;;;;;;;;;;;;40.35;21.07;102031.50;5059980;28;19972;-58
2022/04/14 12:09:43;;;;;;;;;;;;;;;41.35;21.17;102034.25;5058382;28;19956;-59
2022/04/14 12:12:09;;;;;;;;;;;;;;;41.41;20.71;102034.72;5059787;28;19920;-59
2022/04/14 12:14:34;;;;;;;;;;;;;;;41.02;20.03;102037.78;5055381;28;19913;-59
2022/04/14 12:16:59;;;;;;;;;;;;;;;41.78;19.85;102042.41;5054205;28;20004;-60
2022/04/14 12:19:38;;;;;;;;;;;;;;;41.03;20.29;102037.41;5055287;28;19935;-59
2022/04/14 12:22:05;;;;;;;;;;;;;;;41.64;19.87;102040.25;5055719;28;19964;-58
2022/04/14 12:24:30;;;;;;;;;;;;;;;42.81;18.33;102039.31;5054605;28;19909;-58
2022/04/14 12:26:57;;;;;;;;;;;;;;;41.53;19.22;102039.28;5053592;28;19924;-58
2022/04/14 12:29:22;;;;;;;;;;;;;;;41.06;19.61;102041.44;5057893;28;19921;-57
2022/04/14 12:31:48;;;;;;;;;;;;;;;41.80;18.96;102037.22;5053993;28;19952;-60